Petersburg, Pennsylvania
Current Conditions -  °F | °C
As of 8:53 PM on Wednesday 26 Nov 2014 (Local Time) from KUNV Reporting Station
Light Snow Light Snow  
Wind Chill: 30°   Ceiling: 6000
Heat Index: 30°   Visibility: 7mi
Dew Point: 28°   Wind: 0mph
Humidity: 93%   Direction: NA
Pressure: 29.96"   Gusts: NA
Location:  40.57°N, 78.05°W
Report Text: KUNV 270153Z 00000KT 7SM -SN BR OVC060 M01/M02 A2996
Loading
Personal Weather Stations






























Interactive Weather Map New forecast layout! Learn more

10-Day Weather Forecast

Advertisements
Track Severe Weather on mobile